createdAt,value
2023-08-29T00:00:21.374Z,26.9
2023-08-29T00:05:22.193Z,26.9
2023-08-29T00:10:23.288Z,26.9
2023-08-29T00:15:24.020Z,26.9
2023-08-29T00:25:28.565Z,26.9
2023-08-29T00:30:29.511Z,26.9
2023-08-29T00:35:30.433Z,26.9
2023-08-29T00:40:31.184Z,26.9
2023-08-29T00:45:32.217Z,26.9
2023-08-29T00:50:33.150Z,26.9
2023-08-29T00:55:34.077Z,26.9
2023-08-29T01:00:35.171Z,26.9
2023-08-29T01:05:36.106Z,26.9
2023-08-29T01:10:37.031Z,26.9
2023-08-29T01:15:38.021Z,26.9
2023-08-29T01:20:38.887Z,26.9
2023-08-29T01:25:39.990Z,26.9
2023-08-29T01:30:40.930Z,26.9
2023-08-29T01:35:41.853Z,26.9
2023-08-29T01:40:42.875Z,26.9
2023-08-29T01:45:43.979Z,26.9
2023-08-29T01:50:45.161Z,26.9
2023-08-29T01:55:46.107Z,26.9
2023-08-29T02:00:47.125Z,26.9
2023-08-29T02:05:48.312Z,26.9
2023-08-29T02:10:49.264Z,26.9
2023-08-29T02:15:50.226Z,26.9
2023-08-29T02:20:51.192Z,26.9
2023-08-29T02:25:52.200Z,26.9
2023-08-29T02:30:53.191Z,26.9
2023-08-29T02:35:54.206Z,26.9
2023-08-29T02:40:55.254Z,26.9
2023-08-29T02:45:56.226Z,26.9
2023-08-29T02:50:57.176Z,26.9
2023-08-29T02:55:58.127Z,26.9
2023-08-29T03:00:59.155Z,26.9
2023-08-29T03:06:00.264Z,26.9
2023-08-29T03:11:01.330Z,26.9
2023-08-29T03:16:02.305Z,26.9
2023-08-29T03:21:03.412Z,26.9
2023-08-29T03:26:04.229Z,26.9
2023-08-29T03:31:05.193Z,26.9
2023-08-29T03:36:05.762Z,26.9
2023-08-29T03:41:06.744Z,26.9
2023-08-29T03:46:07.806Z,26.9
2023-08-29T03:51:08.921Z,26.9
2023-08-29T03:56:09.917Z,26.9
2023-08-29T04:01:10.984Z,26.9
2023-08-29T04:06:12.015Z,26.9
2023-08-29T04:11:12.982Z,26.9
2023-08-29T04:16:13.974Z,26.9
2023-08-29T04:21:14.846Z,26.9
2023-08-29T04:26:15.793Z,26.9
2023-08-29T04:31:16.844Z,26.9
2023-08-29T04:36:17.821Z,26.9
2023-08-29T04:41:18.575Z,26.8
2023-08-29T04:46:19.540Z,26.8
2023-08-29T04:51:20.498Z,26.8
2023-08-29T04:56:21.269Z,26.8
2023-08-29T05:01:22.238Z,26.8
2023-08-29T05:06:23.332Z,26.8
2023-08-29T05:11:24.262Z,26.8
2023-08-29T05:16:25.243Z,26.8
2023-08-29T05:21:26.201Z,26.8
2023-08-29T05:26:27.126Z,26.8
2023-08-29T05:31:28.066Z,26.8
2023-08-29T05:36:29.152Z,26.8
2023-08-29T05:41:30.081Z,26.8
2023-08-29T05:46:30.892Z,26.8
2023-08-29T05:51:32.012Z,26.8
2023-08-29T05:56:32.956Z,26.8
2023-08-29T06:01:33.911Z,26.8
2023-08-29T06:06:34.506Z,26.8
2023-08-29T06:11:35.505Z,26.8
2023-08-29T06:16:36.491Z,26.8
2023-08-29T06:21:37.520Z,26.8
2023-08-29T06:26:38.535Z,26.8
2023-08-29T06:31:39.462Z,26.8
2023-08-29T06:36:40.051Z,26.8
2023-08-29T06:41:41.064Z,26.8
2023-08-29T06:46:42.014Z,26.8
2023-08-29T06:51:43.049Z,26.8
2023-08-29T06:56:44.004Z,26.8
2023-08-29T07:01:44.782Z,26.8
2023-08-29T07:06:45.711Z,26.8
2023-08-29T07:11:46.510Z,26.8
2023-08-29T07:16:53.661Z,26.8
2023-08-29T07:22:23.194Z,26.8
2023-08-29T07:27:25.558Z,26.8
2023-08-29T07:32:26.374Z,26.8
2023-08-29T07:37:27.364Z,26.8
2023-08-29T07:42:28.367Z,26.8
2023-08-29T07:47:29.353Z,26.8
2023-08-29T07:52:30.331Z,26.8
2023-08-29T07:57:31.318Z,26.8
2023-08-29T08:02:32.072Z,26.8
2023-08-29T08:07:33.126Z,26.8
2023-08-29T08:12:34.126Z,26.8
2023-08-29T08:17:35.062Z,26.8
2023-08-29T08:22:36.082Z,26.8
2023-08-29T08:27:37.077Z,26.8
2023-08-29T08:32:38.151Z,26.8
2023-08-29T08:37:39.134Z,26.8
2023-08-29T08:42:40.094Z,26.8
2023-08-29T08:47:40.896Z,26.8
2023-08-29T08:52:41.992Z,26.8
2023-08-29T08:57:43.005Z,26.8
2023-08-29T09:02:43.779Z,26.8
2023-08-29T09:07:44.574Z,26.8
2023-08-29T09:12:45.544Z,26.8
2023-08-29T09:17:46.423Z,26.8
2023-08-29T09:22:47.516Z,26.8
2023-08-29T09:27:48.402Z,26.8
2023-08-29T09:32:49.206Z,26.8
2023-08-29T09:37:50.302Z,26.8
2023-08-29T09:42:51.253Z,26.8
2023-08-29T09:47:52.076Z,26.8
2023-08-29T09:52:53.067Z,26.8
2023-08-29T09:57:54.047Z,26.8
2023-08-29T10:02:55.085Z,26.8
2023-08-29T10:07:56.436Z,26.8
2023-08-29T10:12:57.406Z,26.8
2023-08-29T10:17:58.400Z,26.8
2023-08-29T10:22:59.372Z,26.8
2023-08-29T10:28:00.352Z,26.8
2023-08-29T10:33:01.390Z,26.8
2023-08-29T10:38:02.427Z,26.8
2023-08-29T10:43:03.436Z,26.8
2023-08-29T10:48:04.723Z,26.8
2023-08-29T10:53:06.277Z,26.8
2023-08-29T10:58:07.462Z,26.8
2023-08-29T11:03:08.968Z,26.8
2023-08-29T11:08:09.930Z,26.8
2023-08-29T11:13:10.926Z,26.8
2023-08-29T11:18:11.763Z,26.8
2023-08-29T11:23:12.770Z,26.8
2023-08-29T11:28:13.728Z,26.8
2023-08-29T11:33:14.697Z,26.8
2023-08-29T11:38:15.621Z,26.8
2023-08-29T11:43:35.365Z,26.8
2023-08-29T11:50:46.072Z,26.8
2023-08-29T11:55:46.820Z,26.8
2023-08-29T12:00:47.776Z,26.8
2023-08-29T12:05:48.792Z,26.8
2023-08-29T12:10:49.727Z,26.8
2023-08-29T12:15:50.670Z,26.8
2023-08-29T12:20:51.624Z,26.8
2023-08-29T12:25:52.623Z,26.8
2023-08-29T12:30:53.637Z,26.8
2023-08-29T12:35:54.681Z,26.8
2023-08-29T12:40:55.677Z,26.8
2023-08-29T12:46:00.179Z,26.8
2023-08-29T12:51:01.536Z,26.8
2023-08-29T12:56:02.536Z,26.8
2023-08-29T13:01:03.496Z,26.7
2023-08-29T13:06:04.436Z,26.8
2023-08-29T13:11:05.444Z,26.7
2023-08-29T13:16:06.204Z,26.7
2023-08-29T13:21:07.212Z,26.7
2023-08-29T13:26:08.208Z,26.7
2023-08-29T13:31:09.171Z,26.7
2023-08-29T13:36:10.193Z,26.7
2023-08-29T13:41:11.210Z,26.7
2023-08-29T13:46:12.292Z,26.7
2023-08-29T13:51:13.248Z,26.7
2023-08-29T13:56:14.234Z,26.7
2023-08-29T14:01:15.239Z,26.7
2023-08-29T14:06:16.259Z,26.7
2023-08-29T14:11:17.235Z,26.7
2023-08-29T14:16:18.039Z,26.7
2023-08-29T14:21:18.845Z,26.7
2023-08-29T14:26:19.788Z,26.7
2023-08-29T14:31:20.792Z,26.7
2023-08-29T14:36:21.762Z,26.7
2023-08-29T14:41:22.744Z,26.7
2023-08-29T14:46:23.750Z,26.7
2023-08-29T14:51:24.652Z,26.7
2023-08-29T14:56:25.613Z,26.7
2023-08-29T15:01:26.586Z,26.7
2023-08-29T15:06:27.579Z,26.7
2023-08-29T15:11:28.539Z,26.7
2023-08-29T15:16:29.499Z,26.7
2023-08-29T15:21:30.469Z,26.7
2023-08-29T15:26:31.394Z,26.7
2023-08-29T15:31:32.422Z,26.7
2023-08-29T15:36:33.464Z,26.7
2023-08-29T15:41:34.055Z,26.7
2023-08-29T15:46:35.118Z,26.7
2023-08-29T15:51:36.125Z,26.7
2023-08-29T15:56:37.049Z,26.7
2023-08-29T16:01:38.154Z,26.7
2023-08-29T16:06:39.176Z,26.7
2023-08-29T16:11:39.929Z,26.7
2023-08-29T16:16:40.929Z,26.7
2023-08-29T16:21:41.698Z,26.7
2023-08-29T16:26:42.629Z,26.7
2023-08-29T16:31:43.439Z,26.7
2023-08-29T16:36:44.447Z,26.7
2023-08-29T16:41:45.387Z,26.7
2023-08-29T16:46:46.341Z,26.7
2023-08-29T16:51:47.457Z,26.7
2023-08-29T16:56:48.430Z,26.7
2023-08-29T17:01:49.441Z,26.7
2023-08-29T17:06:50.437Z,26.7
2023-08-29T17:11:51.364Z,26.7
2023-08-29T17:16:52.293Z,26.7
2023-08-29T17:21:53.310Z,26.7
2023-08-29T17:26:54.243Z,26.7
2023-08-29T17:31:55.207Z,26.6
2023-08-29T17:36:56.248Z,26.6
2023-08-29T17:41:57.189Z,26.2
2023-08-29T17:46:58.180Z,24.7
2023-08-29T17:51:59.167Z,24.2
2023-08-29T17:57:00.112Z,23.8
2023-08-29T18:02:01.054Z,23.4
2023-08-29T18:07:02.036Z,23.9
2023-08-29T18:12:02.983Z,24.5
2023-08-29T18:17:03.762Z,24.9
2023-08-29T18:22:04.675Z,25.1
2023-08-29T18:27:05.614Z,25.3
2023-08-29T18:32:06.537Z,25.4
2023-08-29T18:37:07.745Z,25.5
2023-08-29T18:42:08.738Z,25.6
2023-08-29T18:47:09.676Z,25.7
2023-08-29T18:52:10.455Z,25.8
2023-08-29T18:57:11.415Z,25.8
2023-08-29T19:02:12.353Z,25.9
2023-08-29T19:07:13.345Z,25.9
2023-08-29T19:12:14.365Z,26
2023-08-29T19:17:15.207Z,26
2023-08-29T19:22:16.254Z,26
2023-08-29T19:27:23.674Z,26
2023-08-29T19:32:36.865Z,26
2023-08-29T19:37:38.018Z,26.1
2023-08-29T19:42:38.986Z,26.1
2023-08-29T19:47:39.969Z,26.1
2023-08-29T19:52:41.003Z,26.1
2023-08-29T19:57:41.958Z,26.1
2023-08-29T20:02:42.891Z,26.2
2023-08-29T20:07:43.907Z,26.2
2023-08-29T20:12:44.883Z,26.2
2023-08-29T20:17:45.986Z,26.2
2023-08-29T20:22:46.867Z,26.2
2023-08-29T20:27:47.851Z,26.2
2023-08-29T20:32:48.789Z,26.2
2023-08-29T20:37:49.830Z,26.2
2023-08-29T20:42:50.792Z,26.2
2023-08-29T20:47:51.854Z,26.3
2023-08-29T20:52:52.900Z,26.3
2023-08-29T20:57:53.867Z,26.3
2023-08-29T21:02:54.674Z,26.3
2023-08-29T21:07:55.552Z,26.3
2023-08-29T21:12:56.361Z,26.3
2023-08-29T21:17:57.341Z,26.3
2023-08-29T21:22:58.328Z,26.3
2023-08-29T21:27:59.273Z,26.3
2023-08-29T21:33:00.234Z,26.3
2023-08-29T21:38:01.226Z,26.3
2023-08-29T21:43:02.202Z,26.3
2023-08-29T21:48:03.163Z,26.3
2023-08-29T21:53:04.239Z,26.3
2023-08-29T21:58:05.311Z,26.3
2023-08-29T22:03:07.319Z,26.3
2023-08-29T22:08:08.680Z,26.3
2023-08-29T22:13:10.100Z,26.4
2023-08-29T22:18:11.395Z,26.4
2023-08-29T22:23:13.548Z,26.4
2023-08-29T22:28:14.521Z,26.4
2023-08-29T22:33:15.275Z,26.4
2023-08-29T22:38:16.227Z,26.4
2023-08-29T22:43:16.980Z,26.4
2023-08-29T22:48:18.063Z,26.4
2023-08-29T22:53:19.357Z,26.4
2023-08-29T22:58:20.141Z,26.3
2023-08-29T23:03:21.187Z,26.3
2023-08-29T23:08:22.315Z,26.3
2023-08-29T23:13:23.154Z,26.3
2023-08-29T23:18:24.107Z,26.3
2023-08-29T23:23:25.060Z,26.3
2023-08-29T23:28:25.985Z,26.3
2023-08-29T23:33:26.934Z,26.3
2023-08-29T23:38:27.886Z,26.3
2023-08-29T23:43:28.820Z,26.3
2023-08-29T23:48:29.800Z,26.3
2023-08-29T23:53:30.758Z,26.3
2023-08-29T23:58:31.696Z,26.3
